sensor_id;sensor_type;location;lat;lon;timestamp;P1;durP1;ratioP1;P2;durP2;ratioP2
33104;SDS011;19476;51.448;6.674;2022-07-23T00:02:25;2.95;;;1.60;;
33104;SDS011;19476;51.448;6.674;2022-07-23T00:04:51;2.40;;;1.50;;
33104;SDS011;19476;51.448;6.674;2022-07-23T00:07:17;3.20;;;1.58;;
33104;SDS011;19476;51.448;6.674;2022-07-23T00:09:43;4.05;;;1.80;;
33104;SDS011;19476;51.448;6.674;2022-07-23T00:12:09;3.17;;;1.98;;
33104;SDS011;19476;51.448;6.674;2022-07-23T00:14:34;2.17;;;1.50;;
33104;SDS011;19476;51.448;6.674;2022-07-23T00:17:00;2.22;;;1.25;;
33104;SDS011;19476;51.448;6.674;2022-07-23T00:19:26;3.63;;;1.83;;
33104;SDS011;19476;51.448;6.674;2022-07-23T00:21:54;3.45;;;1.80;;
33104;SDS011;19476;51.448;6.674;2022-07-23T00:24:20;2.22;;;1.60;;
33104;SDS011;19476;51.448;6.674;2022-07-23T00:26:45;3.53;;;1.73;;
33104;SDS011;19476;51.448;6.674;2022-07-23T00:29:11;3.22;;;1.42;;
33104;SDS011;19476;51.448;6.674;2022-07-23T00:31:37;2.53;;;1.55;;
33104;SDS011;19476;51.448;6.674;2022-07-23T00:34:03;3.00;;;1.60;;
33104;SDS011;19476;51.448;6.674;2022-07-23T00:36:29;2.97;;;1.63;;
33104;SDS011;19476;51.448;6.674;2022-07-23T00:38:56;2.33;;;1.40;;
33104;SDS011;19476;51.448;6.674;2022-07-23T00:41:22;5.28;;;2.10;;
33104;SDS011;19476;51.448;6.674;2022-07-23T00:43:48;2.25;;;1.38;;
33104;SDS011;19476;51.448;6.674;2022-07-23T00:46:23;2.63;;;1.40;;
33104;SDS011;19476;51.448;6.674;2022-07-23T00:48:50;3.45;;;1.63;;
33104;SDS011;19476;51.448;6.674;2022-07-23T00:51:16;3.45;;;1.95;;
33104;SDS011;19476;51.448;6.674;2022-07-23T00:53:42;2.22;;;1.35;;
33104;SDS011;19476;51.448;6.674;2022-07-23T00:56:09;5.00;;;1.80;;
33104;SDS011;19476;51.448;6.674;2022-07-23T00:58:36;2.45;;;1.50;;
33104;SDS011;19476;51.448;6.674;2022-07-23T01:01:03;3.03;;;1.45;;
33104;SDS011;19476;51.448;6.674;2022-07-23T01:03:29;4.20;;;1.75;;
33104;SDS011;19476;51.448;6.674;2022-07-23T01:05:55;3.22;;;1.55;;
33104;SDS011;19476;51.448;6.674;2022-07-23T01:08:22;3.25;;;1.30;;
33104;SDS011;19476;51.448;6.674;2022-07-23T01:10:48;2.83;;;1.80;;
33104;SDS011;19476;51.448;6.674;2022-07-23T01:13:16;2.78;;;1.63;;
33104;SDS011;19476;51.448;6.674;2022-07-23T01:15:42;2.95;;;1.52;;
33104;SDS011;19476;51.448;6.674;2022-07-23T01:18:08;3.13;;;1.70;;
33104;SDS011;19476;51.448;6.674;2022-07-23T01:20:34;2.97;;;1.63;;
33104;SDS011;19476;51.448;6.674;2022-07-23T01:23:00;3.08;;;1.58;;
33104;SDS011;19476;51.448;6.674;2022-07-23T01:28:14;2.60;;;1.60;;
33104;SDS011;19476;51.448;6.674;2022-07-23T01:30:41;2.45;;;1.25;;
33104;SDS011;19476;51.448;6.674;2022-07-23T01:33:06;3.85;;;1.83;;
33104;SDS011;19476;51.448;6.674;2022-07-23T01:35:33;2.63;;;1.52;;
33104;SDS011;19476;51.448;6.674;2022-07-23T01:37:59;3.55;;;1.73;;
33104;SDS011;19476;51.448;6.674;2022-07-23T01:40:25;2.03;;;1.40;;
33104;SDS011;19476;51.448;6.674;2022-07-23T01:42:51;3.33;;;1.52;;
33104;SDS011;19476;51.448;6.674;2022-07-23T01:45:16;2.17;;;1.40;;
33104;SDS011;19476;51.448;6.674;2022-07-23T01:47:42;2.13;;;1.20;;
33104;SDS011;19476;51.448;6.674;2022-07-23T01:50:09;4.60;;;1.80;;
33104;SDS011;19476;51.448;6.674;2022-07-23T01:52:35;2.95;;;1.90;;
33104;SDS011;19476;51.448;6.674;2022-07-23T01:55:00;3.03;;;1.67;;
33104;SDS011;19476;51.448;6.674;2022-07-23T01:57:27;3.58;;;1.70;;
33104;SDS011;19476;51.448;6.674;2022-07-23T01:59:53;3.17;;;1.48;;
33104;SDS011;19476;51.448;6.674;2022-07-23T02:02:19;1.70;;;1.25;;
33104;SDS011;19476;51.448;6.674;2022-07-23T02:04:44;3.03;;;1.63;;
33104;SDS011;19476;51.448;6.674;2022-07-23T02:07:10;4.28;;;1.75;;
33104;SDS011;19476;51.448;6.674;2022-07-23T02:09:36;3.75;;;1.98;;
33104;SDS011;19476;51.448;6.674;2022-07-23T02:12:02;2.67;;;1.50;;
33104;SDS011;19476;51.448;6.674;2022-07-23T02:14:28;3.03;;;1.77;;
33104;SDS011;19476;51.448;6.674;2022-07-23T02:16:54;3.15;;;1.65;;
33104;SDS011;19476;51.448;6.674;2022-07-23T02:19:20;4.55;;;1.70;;
33104;SDS011;19476;51.448;6.674;2022-07-23T02:21:46;3.08;;;1.88;;
33104;SDS011;19476;51.448;6.674;2022-07-23T02:24:12;3.35;;;1.90;;
33104;SDS011;19476;51.448;6.674;2022-07-23T02:26:38;3.55;;;1.65;;
33104;SDS011;19476;51.448;6.674;2022-07-23T02:29:04;3.05;;;1.55;;
33104;SDS011;19476;51.448;6.674;2022-07-23T02:31:30;3.95;;;1.77;;
33104;SDS011;19476;51.448;6.674;2022-07-23T02:33:56;2.70;;;1.70;;
33104;SDS011;19476;51.448;6.674;2022-07-23T02:36:22;2.30;;;1.52;;
33104;SDS011;19476;51.448;6.674;2022-07-23T02:38:48;1.98;;;1.40;;
33104;SDS011;19476;51.448;6.674;2022-07-23T02:41:14;3.15;;;1.70;;
33104;SDS011;19476;51.448;6.674;2022-07-23T02:43:40;3.70;;;1.80;;
33104;SDS011;19476;51.448;6.674;2022-07-23T02:46:06;2.83;;;1.42;;
33104;SDS011;19476;51.448;6.674;2022-07-23T02:48:32;4.10;;;1.70;;
33104;SDS011;19476;51.448;6.674;2022-07-23T02:50:58;3.10;;;1.77;;
33104;SDS011;19476;51.448;6.674;2022-07-23T02:53:25;2.80;;;1.65;;
33104;SDS011;19476;51.448;6.674;2022-07-23T02:55:51;3.28;;;1.85;;
33104;SDS011;19476;51.448;6.674;2022-07-23T02:58:17;2.70;;;1.90;;
33104;SDS011;19476;51.448;6.674;2022-07-23T03:00:43;3.55;;;1.67;;
33104;SDS011;19476;51.448;6.674;2022-07-23T03:03:09;3.13;;;1.65;;
33104;SDS011;19476;51.448;6.674;2022-07-23T03:05:36;3.20;;;1.58;;
33104;SDS011;19476;51.448;6.674;2022-07-23T03:08:02;4.45;;;2.13;;
33104;SDS011;19476;51.448;6.674;2022-07-23T03:10:27;5.60;;;2.00;;
33104;SDS011;19476;51.448;6.674;2022-07-23T03:12:54;4.53;;;1.90;;
33104;SDS011;19476;51.448;6.674;2022-07-23T03:15:20;4.07;;;2.05;;
33104;SDS011;19476;51.448;6.674;2022-07-23T03:17:46;3.92;;;2.10;;
33104;SDS011;19476;51.448;6.674;2022-07-23T03:20:11;4.70;;;1.95;;
33104;SDS011;19476;51.448;6.674;2022-07-23T03:22:38;2.88;;;2.00;;
33104;SDS011;19476;51.448;6.674;2022-07-23T03:25:03;4.10;;;1.67;;
33104;SDS011;19476;51.448;6.674;2022-07-23T03:27:30;3.50;;;1.98;;
33104;SDS011;19476;51.448;6.674;2022-07-23T03:29:57;3.03;;;1.85;;
33104;SDS011;19476;51.448;6.674;2022-07-23T03:32:24;3.35;;;2.05;;
33104;SDS011;19476;51.448;6.674;2022-07-23T03:34:51;2.15;;;1.60;;
33104;SDS011;19476;51.448;6.674;2022-07-23T03:37:17;4.68;;;2.10;;
33104;SDS011;19476;51.448;6.674;2022-07-23T03:39:44;4.80;;;2.10;;
33104;SDS011;19476;51.448;6.674;2022-07-23T03:42:10;3.75;;;2.45;;
33104;SDS011;19476;51.448;6.674;2022-07-23T03:44:36;5.43;;;2.22;;
33104;SDS011;19476;51.448;6.674;2022-07-23T03:47:03;4.75;;;1.98;;
33104;SDS011;19476;51.448;6.674;2022-07-23T03:49:30;3.40;;;2.28;;
33104;SDS011;19476;51.448;6.674;2022-07-23T03:51:56;3.80;;;1.77;;
33104;SDS011;19476;51.448;6.674;2022-07-23T03:54:22;4.65;;;2.20;;
33104;SDS011;19476;51.448;6.674;2022-07-23T03:56:47;3.22;;;1.88;;
33104;SDS011;19476;51.448;6.674;2022-07-23T03:59:14;2.70;;;1.52;;
33104;SDS011;19476;51.448;6.674;2022-07-23T04:01:39;4.20;;;2.20;;
33104;SDS011;19476;51.448;6.674;2022-07-23T04:04:05;3.03;;;2.20;;
33104;SDS011;19476;51.448;6.674;2022-07-23T04:06:33;3.70;;;2.10;;
33104;SDS011;19476;51.448;6.674;2022-07-23T04:09:00;3.55;;;2.35;;
33104;SDS011;19476;51.448;6.674;2022-07-23T04:11:26;2.80;;;1.65;;
33104;SDS011;19476;51.448;6.674;2022-07-23T04:13:52;4.07;;;1.92;;
33104;SDS011;19476;51.448;6.674;2022-07-23T04:16:17;3.05;;;1.80;;
33104;SDS011;19476;51.448;6.674;2022-07-23T04:18:44;3.80;;;2.28;;
33104;SDS011;19476;51.448;6.674;2022-07-23T04:21:09;3.47;;;1.95;;
33104;SDS011;19476;51.448;6.674;2022-07-23T04:23:35;3.13;;;1.80;;
33104;SDS011;19476;51.448;6.674;2022-07-23T04:26:01;3.75;;;2.03;;
33104;SDS011;19476;51.448;6.674;2022-07-23T04:28:28;3.75;;;2.38;;
33104;SDS011;19476;51.448;6.674;2022-07-23T04:30:55;4.22;;;2.17;;
33104;SDS011;19476;51.448;6.674;2022-07-23T04:33:24;3.53;;;2.40;;
33104;SDS011;19476;51.448;6.674;2022-07-23T04:35:50;5.78;;;2.75;;
33104;SDS011;19476;51.448;6.674;2022-07-23T04:38:16;3.72;;;2.17;;
33104;SDS011;19476;51.448;6.674;2022-07-23T04:40:42;4.20;;;2.30;;
33104;SDS011;19476;51.448;6.674;2022-07-23T04:43:08;3.43;;;2.53;;
33104;SDS011;19476;51.448;6.674;2022-07-23T04:45:34;4.00;;;2.22;;
33104;SDS011;19476;51.448;6.674;2022-07-23T04:48:00;5.00;;;2.08;;
33104;SDS011;19476;51.448;6.674;2022-07-23T04:50:26;3.83;;;2.22;;
33104;SDS011;19476;51.448;6.674;2022-07-23T04:52:52;3.80;;;2.20;;
33104;SDS011;19476;51.448;6.674;2022-07-23T04:55:18;4.45;;;2.42;;
33104;SDS011;19476;51.448;6.674;2022-07-23T04:57:43;2.78;;;1.90;;
33104;SDS011;19476;51.448;6.674;2022-07-23T05:00:09;4.57;;;2.40;;
33104;SDS011;19476;51.448;6.674;2022-07-23T05:02:35;3.72;;;2.30;;
33104;SDS011;19476;51.448;6.674;2022-07-23T05:05:02;3.97;;;2.22;;
33104;SDS011;19476;51.448;6.674;2022-07-23T05:07:27;3.85;;;2.33;;
33104;SDS011;19476;51.448;6.674;2022-07-23T05:09:53;3.63;;;2.22;;
33104;SDS011;19476;51.448;6.674;2022-07-23T05:12:19;4.97;;;2.70;;
33104;SDS011;19476;51.448;6.674;2022-07-23T05:14:45;5.30;;;3.00;;
33104;SDS011;19476;51.448;6.674;2022-07-23T05:17:11;4.90;;;2.97;;
33104;SDS011;19476;51.448;6.674;2022-07-23T05:19:37;4.72;;;2.80;;
33104;SDS011;19476;51.448;6.674;2022-07-23T05:22:03;4.53;;;2.45;;
33104;SDS011;19476;51.448;6.674;2022-07-23T05:24:29;5.70;;;2.55;;
33104;SDS011;19476;51.448;6.674;2022-07-23T05:26:55;3.65;;;2.33;;
33104;SDS011;19476;51.448;6.674;2022-07-23T05:29:21;4.22;;;2.40;;
33104;SDS011;19476;51.448;6.674;2022-07-23T05:31:47;4.32;;;2.40;;
33104;SDS011;19476;51.448;6.674;2022-07-23T05:34:13;4.13;;;2.72;;
33104;SDS011;19476;51.448;6.674;2022-07-23T05:36:39;4.43;;;2.60;;
33104;SDS011;19476;51.448;6.674;2022-07-23T05:39:04;5.40;;;2.50;;
33104;SDS011;19476;51.448;6.674;2022-07-23T05:41:30;3.33;;;2.17;;
33104;SDS011;19476;51.448;6.674;2022-07-23T05:43:56;3.55;;;2.47;;
33104;SDS011;19476;51.448;6.674;2022-07-23T05:46:22;3.88;;;2.42;;
33104;SDS011;19476;51.448;6.674;2022-07-23T05:48:47;4.53;;;2.53;;
33104;SDS011;19476;51.448;6.674;2022-07-23T05:51:21;5.35;;;2.72;;
33104;SDS011;19476;51.448;6.674;2022-07-23T05:53:48;5.70;;;2.70;;
33104;SDS011;19476;51.448;6.674;2022-07-23T05:56:15;4.97;;;3.00;;
33104;SDS011;19476;51.448;6.674;2022-07-23T05:58:41;4.55;;;2.42;;
33104;SDS011;19476;51.448;6.674;2022-07-23T06:01:08;4.38;;;3.05;;
33104;SDS011;19476;51.448;6.674;2022-07-23T06:03:34;4.55;;;2.88;;
33104;SDS011;19476;51.448;6.674;2022-07-23T06:06:00;5.35;;;2.80;;
33104;SDS011;19476;51.448;6.674;2022-07-23T06:08:25;3.90;;;2.35;;
33104;SDS011;19476;51.448;6.674;2022-07-23T06:10:52;5.03;;;3.05;;
33104;SDS011;19476;51.448;6.674;2022-07-23T06:13:18;4.22;;;2.75;;
33104;SDS011;19476;51.448;6.674;2022-07-23T06:15:44;4.28;;;2.80;;
33104;SDS011;19476;51.448;6.674;2022-07-23T06:18:10;4.10;;;2.83;;
33104;SDS011;19476;51.448;6.674;2022-07-23T06:20:36;6.07;;;2.60;;
33104;SDS011;19476;51.448;6.674;2022-07-23T06:23:02;4.97;;;2.72;;
33104;SDS011;19476;51.448;6.674;2022-07-23T06:25:27;3.95;;;2.65;;
33104;SDS011;19476;51.448;6.674;2022-07-23T06:27:54;5.15;;;2.88;;
33104;SDS011;19476;51.448;6.674;2022-07-23T06:30:19;5.30;;;3.10;;
33104;SDS011;19476;51.448;6.674;2022-07-23T06:32:46;5.45;;;2.95;;
33104;SDS011;19476;51.448;6.674;2022-07-23T06:35:12;4.63;;;2.80;;
33104;SDS011;19476;51.448;6.674;2022-07-23T06:37:38;4.82;;;2.53;;
33104;SDS011;19476;51.448;6.674;2022-07-23T06:40:04;4.93;;;2.58;;
33104;SDS011;19476;51.448;6.674;2022-07-23T06:42:30;4.95;;;2.83;;
33104;SDS011;19476;51.448;6.674;2022-07-23T06:44:56;9.48;;;2.70;;
33104;SDS011;19476;51.448;6.674;2022-07-23T06:47:22;4.40;;;2.83;;
33104;SDS011;19476;51.448;6.674;2022-07-23T06:49:48;6.10;;;2.97;;
33104;SDS011;19476;51.448;6.674;2022-07-23T06:52:14;5.65;;;3.08;;
33104;SDS011;19476;51.448;6.674;2022-07-23T06:54:40;4.82;;;2.90;;
33104;SDS011;19476;51.448;6.674;2022-07-23T06:57:06;5.28;;;2.65;;
33104;SDS011;19476;51.448;6.674;2022-07-23T06:59:32;4.80;;;2.60;;
33104;SDS011;19476;51.448;6.674;2022-07-23T07:01:58;5.28;;;2.60;;
33104;SDS011;19476;51.448;6.674;2022-07-23T07:04:24;4.65;;;2.78;;
33104;SDS011;19476;51.448;6.674;2022-07-23T07:06:50;4.30;;;2.78;;
33104;SDS011;19476;51.448;6.674;2022-07-23T07:09:16;4.20;;;2.33;;
33104;SDS011;19476;51.448;6.674;2022-07-23T07:11:43;4.57;;;2.28;;
33104;SDS011;19476;51.448;6.674;2022-07-23T07:14:08;3.75;;;2.33;;
33104;SDS011;19476;51.448;6.674;2022-07-23T07:16:34;3.42;;;2.38;;
33104;SDS011;19476;51.448;6.674;2022-07-23T07:19:00;4.53;;;2.92;;
33104;SDS011;19476;51.448;6.674;2022-07-23T07:21:26;4.53;;;2.50;;
33104;SDS011;19476;51.448;6.674;2022-07-23T07:23:52;4.45;;;2.70;;
33104;SDS011;19476;51.448;6.674;2022-07-23T07:26:18;4.43;;;2.38;;
33104;SDS011;19476;51.448;6.674;2022-07-23T07:28:44;4.38;;;2.15;;
33104;SDS011;19476;51.448;6.674;2022-07-23T07:31:10;3.65;;;2.30;;
33104;SDS011;19476;51.448;6.674;2022-07-23T07:33:36;3.72;;;2.08;;
33104;SDS011;19476;51.448;6.674;2022-07-23T07:36:02;3.25;;;1.92;;
33104;SDS011;19476;51.448;6.674;2022-07-23T07:38:29;3.88;;;1.70;;
33104;SDS011;19476;51.448;6.674;2022-07-23T07:40:54;3.30;;;1.63;;
33104;SDS011;19476;51.448;6.674;2022-07-23T07:43:21;4.03;;;1.65;;
33104;SDS011;19476;51.448;6.674;2022-07-23T07:45:46;2.42;;;1.67;;
33104;SDS011;19476;51.448;6.674;2022-07-23T07:48:12;3.75;;;1.25;;
33104;SDS011;19476;51.448;6.674;2022-07-23T07:50:38;2.70;;;1.70;;
33104;SDS011;19476;51.448;6.674;2022-07-23T07:53:04;2.78;;;1.70;;
33104;SDS011;19476;51.448;6.674;2022-07-23T07:55:30;3.58;;;1.73;;
33104;SDS011;19476;51.448;6.674;2022-07-23T07:57:56;3.75;;;1.80;;
33104;SDS011;19476;51.448;6.674;2022-07-23T08:00:22;2.80;;;1.58;;
33104;SDS011;19476;51.448;6.674;2022-07-23T08:02:50;3.05;;;1.92;;
33104;SDS011;19476;51.448;6.674;2022-07-23T08:05:20;2.50;;;1.80;;
33104;SDS011;19476;51.448;6.674;2022-07-23T08:07:47;4.18;;;1.95;;
33104;SDS011;19476;51.448;6.674;2022-07-23T08:10:13;4.40;;;1.70;;
33104;SDS011;19476;51.448;6.674;2022-07-23T08:12:44;4.03;;;1.88;;
33104;SDS011;19476;51.448;6.674;2022-07-23T08:15:12;3.05;;;1.88;;
33104;SDS011;19476;51.448;6.674;2022-07-23T08:17:38;3.25;;;1.90;;
33104;SDS011;19476;51.448;6.674;2022-07-23T08:20:05;4.22;;;2.10;;
33104;SDS011;19476;51.448;6.674;2022-07-23T08:25:33;3.15;;;1.65;;
33104;SDS011;19476;51.448;6.674;2022-07-23T08:28:02;3.50;;;1.90;;
33104;SDS011;19476;51.448;6.674;2022-07-23T08:30:30;2.28;;;1.52;;
33104;SDS011;19476;51.448;6.674;2022-07-23T08:32:58;2.30;;;1.50;;
33104;SDS011;19476;51.448;6.674;2022-07-23T08:35:31;4.15;;;1.60;;
33104;SDS011;19476;51.448;6.674;2022-07-23T08:37:59;3.00;;;1.63;;
33104;SDS011;19476;51.448;6.674;2022-07-23T08:40:27;2.65;;;1.63;;
33104;SDS011;19476;51.448;6.674;2022-07-23T08:42:54;3.90;;;1.80;;
33104;SDS011;19476;51.448;6.674;2022-07-23T08:45:21;3.75;;;1.67;;
33104;SDS011;19476;51.448;6.674;2022-07-23T08:47:49;4.38;;;1.88;;
33104;SDS011;19476;51.448;6.674;2022-07-23T08:50:21;2.88;;;1.85;;
33104;SDS011;19476;51.448;6.674;2022-07-23T08:52:48;3.83;;;1.83;;
33104;SDS011;19476;51.448;6.674;2022-07-23T08:55:16;3.03;;;1.60;;
33104;SDS011;19476;51.448;6.674;2022-07-23T08:57:42;3.60;;;1.52;;
33104;SDS011;19476;51.448;6.674;2022-07-23T09:00:09;2.65;;;1.50;;
33104;SDS011;19476;51.448;6.674;2022-07-23T09:02:39;2.65;;;1.75;;
33104;SDS011;19476;51.448;6.674;2022-07-23T09:05:07;2.75;;;1.35;;
33104;SDS011;19476;51.448;6.674;2022-07-23T09:07:37;6.93;;;1.80;;
33104;SDS011;19476;51.448;6.674;2022-07-23T09:10:23;4.03;;;1.63;;
33104;SDS011;19476;51.448;6.674;2022-07-23T09:12:49;2.40;;;1.38;;
33104;SDS011;19476;51.448;6.674;2022-07-23T09:15:15;3.00;;;1.65;;
33104;SDS011;19476;51.448;6.674;2022-07-23T09:17:42;2.80;;;1.23;;
33104;SDS011;19476;51.448;6.674;2022-07-23T09:20:17;2.63;;;1.50;;
33104;SDS011;19476;51.448;6.674;2022-07-23T09:22:46;2.90;;;1.38;;
33104;SDS011;19476;51.448;6.674;2022-07-23T09:25:17;2.40;;;1.52;;
33104;SDS011;19476;51.448;6.674;2022-07-23T09:27:51;2.78;;;1.38;;
33104;SDS011;19476;51.448;6.674;2022-07-23T09:30:22;1.80;;;1.00;;
33104;SDS011;19476;51.448;6.674;2022-07-23T09:38:34;2.80;;;1.05;;
33104;SDS011;19476;51.448;6.674;2022-07-23T09:41:16;1.63;;;1.08;;
33104;SDS011;19476;51.448;6.674;2022-07-23T09:43:42;2.90;;;1.13;;
33104;SDS011;19476;51.448;6.674;2022-07-23T09:46:25;2.97;;;1.55;;
33104;SDS011;19476;51.448;6.674;2022-07-23T09:48:55;1.70;;;1.20;;
33104;SDS011;19476;51.448;6.674;2022-07-23T09:51:22;3.17;;;1.38;;
33104;SDS011;19476;51.448;6.674;2022-07-23T09:54:03;1.80;;;1.25;;
33104;SDS011;19476;51.448;6.674;2022-07-23T09:56:29;6.38;;;1.17;;
33104;SDS011;19476;51.448;6.674;2022-07-23T09:58:58;2.03;;;1.00;;
33104;SDS011;19476;51.448;6.674;2022-07-23T10:01:31;2.78;;;1.15;;
33104;SDS011;19476;51.448;6.674;2022-07-23T10:03:57;2.65;;;1.40;;
33104;SDS011;19476;51.448;6.674;2022-07-23T10:06:24;2.78;;;1.30;;
33104;SDS011;19476;51.448;6.674;2022-07-23T10:08:51;2.58;;;1.23;;
33104;SDS011;19476;51.448;6.674;2022-07-23T10:11:20;2.17;;;1.00;;
33104;SDS011;19476;51.448;6.674;2022-07-23T10:13:46;1.92;;;1.20;;
33104;SDS011;19476;51.448;6.674;2022-07-23T10:16:19;2.08;;;1.30;;
33104;SDS011;19476;51.448;6.674;2022-07-23T10:18:46;1.75;;;1.00;;
33104;SDS011;19476;51.448;6.674;2022-07-23T10:21:16;2.03;;;1.17;;
33104;SDS011;19476;51.448;6.674;2022-07-23T10:24:01;2.17;;;1.25;;
33104;SDS011;19476;51.448;6.674;2022-07-23T10:26:40;2.47;;;1.60;;
33104;SDS011;19476;51.448;6.674;2022-07-23T10:35:36;1.13;;;0.90;;
33104;SDS011;19476;51.448;6.674;2022-07-23T10:38:14;2.08;;;1.30;;
33104;SDS011;19476;51.448;6.674;2022-07-23T10:40:54;5.15;;;1.35;;
33104;SDS011;19476;51.448;6.674;2022-07-23T10:43:21;2.97;;;1.25;;
33104;SDS011;19476;51.448;6.674;2022-07-23T10:45:48;1.50;;;1.00;;
33104;SDS011;19476;51.448;6.674;2022-07-23T10:48:20;2.63;;;1.35;;
33104;SDS011;19476;51.448;6.674;2022-07-23T10:59:28;1.65;;;0.77;;
33104;SDS011;19476;51.448;6.674;2022-07-23T11:02:11;1.52;;;1.00;;
33104;SDS011;19476;51.448;6.674;2022-07-23T11:04:51;1.30;;;0.90;;
33104;SDS011;19476;51.448;6.674;2022-07-23T11:07:18;2.30;;;1.20;;
33104;SDS011;19476;51.448;6.674;2022-07-23T11:09:44;1.80;;;1.08;;
33104;SDS011;19476;51.448;6.674;2022-07-23T11:15:05;1.45;;;1.00;;
33104;SDS011;19476;51.448;6.674;2022-07-23T11:20:22;2.22;;;1.00;;
33104;SDS011;19476;51.448;6.674;2022-07-23T11:22:51;2.55;;;1.10;;
33104;SDS011;19476;51.448;6.674;2022-07-23T11:27:55;1.77;;;1.05;;
33104;SDS011;19476;51.448;6.674;2022-07-23T11:30:40;3.38;;;1.33;;
33104;SDS011;19476;51.448;6.674;2022-07-23T11:35:38;2.75;;;1.17;;
33104;SDS011;19476;51.448;6.674;2022-07-23T11:38:23;2.35;;;1.20;;
33104;SDS011;19476;51.448;6.674;2022-07-23T11:40:51;1.45;;;1.17;;
33104;SDS011;19476;51.448;6.674;2022-07-23T11:43:19;2.13;;;1.10;;
33104;SDS011;19476;51.448;6.674;2022-07-23T11:45:52;1.95;;;1.30;;
33104;SDS011;19476;51.448;6.674;2022-07-23T11:48:28;2.10;;;1.17;;
33104;SDS011;19476;51.448;6.674;2022-07-23T11:50:56;1.27;;;0.93;;
33104;SDS011;19476;51.448;6.674;2022-07-23T11:53:26;2.67;;;1.13;;
33104;SDS011;19476;51.448;6.674;2022-07-23T11:56:02;1.58;;;0.90;;
33104;SDS011;19476;51.448;6.674;2022-07-23T11:58:32;1.48;;;1.00;;
33104;SDS011;19476;51.448;6.674;2022-07-23T12:00:58;1.30;;;1.00;;
33104;SDS011;19476;51.448;6.674;2022-07-23T12:03:24;1.92;;;1.17;;
33104;SDS011;19476;51.448;6.674;2022-07-23T12:05:55;1.13;;;0.80;;
33104;SDS011;19476;51.448;6.674;2022-07-23T12:08:22;1.70;;;1.10;;
33104;SDS011;19476;51.448;6.674;2022-07-23T12:10:48;2.20;;;0.90;;
33104;SDS011;19476;51.448;6.674;2022-07-23T12:13:15;1.80;;;0.90;;
33104;SDS011;19476;51.448;6.674;2022-07-23T12:15:50;1.48;;;0.90;;
33104;SDS011;19476;51.448;6.674;2022-07-23T12:18:19;2.30;;;0.82;;
33104;SDS011;19476;51.448;6.674;2022-07-23T12:20:50;1.05;;;0.70;;
33104;SDS011;19476;51.448;6.674;2022-07-23T12:23:18;2.85;;;1.15;;
33104;SDS011;19476;51.448;6.674;2022-07-23T12:25:45;1.55;;;0.90;;
33104;SDS011;19476;51.448;6.674;2022-07-23T12:28:14;1.20;;;0.80;;
33104;SDS011;19476;51.448;6.674;2022-07-23T12:30:58;1.17;;;0.88;;
33104;SDS011;19476;51.448;6.674;2022-07-23T12:33:32;1.88;;;1.00;;
33104;SDS011;19476;51.448;6.674;2022-07-23T12:36:00;2.90;;;1.20;;
33104;SDS011;19476;51.448;6.674;2022-07-23T12:38:36;1.25;;;1.00;;
33104;SDS011;19476;51.448;6.674;2022-07-23T12:41:06;1.80;;;1.10;;
33104;SDS011;19476;51.448;6.674;2022-07-23T12:43:32;1.98;;;1.50;;
33104;SDS011;19476;51.448;6.674;2022-07-23T12:48:55;1.90;;;1.10;;
33104;SDS011;19476;51.448;6.674;2022-07-23T12:51:25;1.58;;;1.00;;
33104;SDS011;19476;51.448;6.674;2022-07-23T12:53:55;2.92;;;1.20;;
33104;SDS011;19476;51.448;6.674;2022-07-23T12:56:37;2.70;;;1.40;;
33104;SDS011;19476;51.448;6.674;2022-07-23T12:59:13;2.20;;;1.48;;
33104;SDS011;19476;51.448;6.674;2022-07-23T13:01:59;4.15;;;1.30;;
33104;SDS011;19476;51.448;6.674;2022-07-23T13:04:26;2.20;;;1.25;;
33104;SDS011;19476;51.448;6.674;2022-07-23T13:06:53;2.05;;;1.20;;
33104;SDS011;19476;51.448;6.674;2022-07-23T13:09:24;2.03;;;1.23;;
33104;SDS011;19476;51.448;6.674;2022-07-23T13:11:52;1.92;;;1.27;;
33104;SDS011;19476;51.448;6.674;2022-07-23T13:14:19;2.97;;;1.42;;
33104;SDS011;19476;51.448;6.674;2022-07-23T13:16:46;2.65;;;1.30;;
33104;SDS011;19476;51.448;6.674;2022-07-23T13:19:17;1.80;;;1.20;;
33104;SDS011;19476;51.448;6.674;2022-07-23T13:21:45;1.50;;;1.17;;
33104;SDS011;19476;51.448;6.674;2022-07-23T13:24:11;2.17;;;1.45;;
33104;SDS011;19476;51.448;6.674;2022-07-23T13:29:07;1.90;;;1.45;;
33104;SDS011;19476;51.448;6.674;2022-07-23T13:31:33;2.05;;;1.33;;
33104;SDS011;19476;51.448;6.674;2022-07-23T13:34:00;2.15;;;1.63;;
33104;SDS011;19476;51.448;6.674;2022-07-23T13:36:26;1.92;;;1.30;;
33104;SDS011;19476;51.448;6.674;2022-07-23T13:38:52;2.33;;;1.15;;
33104;SDS011;19476;51.448;6.674;2022-07-23T13:41:18;2.08;;;1.30;;
33104;SDS011;19476;51.448;6.674;2022-07-23T13:43:44;2.20;;;1.40;;
33104;SDS011;19476;51.448;6.674;2022-07-23T13:46:11;2.58;;;1.23;;
33104;SDS011;19476;51.448;6.674;2022-07-23T13:48:36;2.13;;;1.70;;
33104;SDS011;19476;51.448;6.674;2022-07-23T13:51:02;2.17;;;1.55;;
33104;SDS011;19476;51.448;6.674;2022-07-23T13:53:29;2.10;;;1.60;;
33104;SDS011;19476;51.448;6.674;2022-07-23T13:55:55;1.25;;;1.10;;
33104;SDS011;19476;51.448;6.674;2022-07-23T13:58:22;1.67;;;1.10;;
33104;SDS011;19476;51.448;6.674;2022-07-23T14:00:49;1.95;;;1.40;;
33104;SDS011;19476;51.448;6.674;2022-07-23T14:03:17;1.50;;;1.25;;
33104;SDS011;19476;51.448;6.674;2022-07-23T14:05:44;1.90;;;1.58;;
33104;SDS011;19476;51.448;6.674;2022-07-23T14:08:10;2.72;;;1.90;;
33104;SDS011;19476;51.448;6.674;2022-07-23T14:10:37;2.35;;;1.48;;
33104;SDS011;19476;51.448;6.674;2022-07-23T14:13:03;2.53;;;1.35;;
33104;SDS011;19476;51.448;6.674;2022-07-23T14:15:29;2.60;;;1.70;;
33104;SDS011;19476;51.448;6.674;2022-07-23T14:17:56;2.20;;;1.48;;
33104;SDS011;19476;51.448;6.674;2022-07-23T14:20:23;1.95;;;1.52;;
33104;SDS011;19476;51.448;6.674;2022-07-23T14:22:49;2.83;;;1.80;;
33104;SDS011;19476;51.448;6.674;2022-07-23T14:25:15;2.80;;;1.92;;
33104;SDS011;19476;51.448;6.674;2022-07-23T14:27:42;1.98;;;1.42;;
33104;SDS011;19476;51.448;6.674;2022-07-23T14:30:08;2.22;;;1.55;;
33104;SDS011;19476;51.448;6.674;2022-07-23T14:32:34;1.90;;;1.50;;
33104;SDS011;19476;51.448;6.674;2022-07-23T14:35:01;2.08;;;1.80;;
33104;SDS011;19476;51.448;6.674;2022-07-23T14:37:28;2.53;;;1.60;;
33104;SDS011;19476;51.448;6.674;2022-07-23T14:39:54;2.33;;;1.30;;
33104;SDS011;19476;51.448;6.674;2022-07-23T14:42:19;3.60;;;1.63;;
33104;SDS011;19476;51.448;6.674;2022-07-23T14:44:45;2.30;;;1.63;;
33104;SDS011;19476;51.448;6.674;2022-07-23T14:47:11;2.35;;;1.88;;
33104;SDS011;19476;51.448;6.674;2022-07-23T14:49:37;2.78;;;2.00;;
33104;SDS011;19476;51.448;6.674;2022-07-23T14:52:03;3.28;;;1.58;;
33104;SDS011;19476;51.448;6.674;2022-07-23T14:54:30;2.00;;;1.30;;
33104;SDS011;19476;51.448;6.674;2022-07-23T14:56:57;1.85;;;1.40;;
33104;SDS011;19476;51.448;6.674;2022-07-23T14:59:24;2.53;;;1.80;;
33104;SDS011;19476;51.448;6.674;2022-07-23T15:01:50;2.80;;;1.50;;
33104;SDS011;19476;51.448;6.674;2022-07-23T15:04:16;2.15;;;1.70;;
33104;SDS011;19476;51.448;6.674;2022-07-23T15:06:43;3.42;;;1.83;;
33104;SDS011;19476;51.448;6.674;2022-07-23T15:09:09;2.53;;;1.90;;
33104;SDS011;19476;51.448;6.674;2022-07-23T15:11:35;3.67;;;1.80;;
33104;SDS011;19476;51.448;6.674;2022-07-23T15:14:05;2.28;;;1.63;;
33104;SDS011;19476;51.448;6.674;2022-07-23T15:16:33;2.17;;;1.67;;
33104;SDS011;19476;51.448;6.674;2022-07-23T15:18:59;2.65;;;1.60;;
33104;SDS011;19476;51.448;6.674;2022-07-23T15:21:27;2.80;;;1.63;;
33104;SDS011;19476;51.448;6.674;2022-07-23T15:23:54;2.83;;;1.95;;
33104;SDS011;19476;51.448;6.674;2022-07-23T15:26:24;2.75;;;1.95;;
33104;SDS011;19476;51.448;6.674;2022-07-23T15:28:54;2.20;;;1.90;;
33104;SDS011;19476;51.448;6.674;2022-07-23T15:31:21;2.15;;;1.52;;
33104;SDS011;19476;51.448;6.674;2022-07-23T15:33:48;2.70;;;2.25;;